createdAt,value
2022-11-25T00:00:13.331Z,0.80
2022-11-25T00:02:43.606Z,1.13
2022-11-25T00:05:10.333Z,1.55
2022-11-25T00:07:36.983Z,1.27
2022-11-25T00:10:04.156Z,1.42
2022-11-25T00:12:30.614Z,0.98
2022-11-25T00:14:57.324Z,3.63
2022-11-25T00:17:23.901Z,1.10
2022-11-25T00:19:51.011Z,1.83
2022-11-25T00:22:17.572Z,1.90
2022-11-25T00:24:44.102Z,1.80
2022-11-25T00:27:10.686Z,0.85
2022-11-25T00:29:37.148Z,0.80
2022-11-25T00:32:03.809Z,1.10
2022-11-25T00:34:30.439Z,1.23
2022-11-25T00:36:56.988Z,1.10
2022-11-25T00:39:24.701Z,3.45
2022-11-25T00:42:09.771Z,1.23
2022-11-25T00:44:37.212Z,1.00
2022-11-25T00:47:06.930Z,1.33
2022-11-25T00:49:33.517Z,0.80
2022-11-25T00:51:59.998Z,1.00
2022-11-25T00:54:26.644Z,0.73
2022-11-25T00:56:53.248Z,1.50
2022-11-25T00:59:19.787Z,0.93
2022-11-25T01:01:46.449Z,3.53
2022-11-25T01:04:13.246Z,0.88
2022-11-25T01:06:39.817Z,0.98
2022-11-25T01:09:06.777Z,0.80
2022-11-25T01:11:33.856Z,1.38
2022-11-25T01:14:01.706Z,1.33
2022-11-25T01:16:29.502Z,0.70
2022-11-25T01:18:56.386Z,1.20
2022-11-25T01:21:24.847Z,1.75
2022-11-25T01:23:51.528Z,1.02
2022-11-25T01:26:22.287Z,0.80
2022-11-25T01:28:49.556Z,1.10
2022-11-25T01:31:17.901Z,1.55
2022-11-25T01:33:45.121Z,1.15
2022-11-25T01:36:12.910Z,0.80
2022-11-25T01:38:40.014Z,1.00
2022-11-25T01:41:07.752Z,1.58
2022-11-25T01:43:34.542Z,1.25
2022-11-25T01:46:10.335Z,1.42
2022-11-25T01:48:44.486Z,0.70
2022-11-25T01:51:34.258Z,1.10
2022-11-25T01:54:03.141Z,1.63
2022-11-25T01:56:31.032Z,0.85
2022-11-25T01:58:57.623Z,1.15
2022-11-25T02:01:24.457Z,1.25
2022-11-25T02:03:52.972Z,0.90
2022-11-25T02:06:31.103Z,0.80
2022-11-25T02:09:01.599Z,0.65
2022-11-25T02:11:29.238Z,0.82
2022-11-25T02:13:55.963Z,1.85
2022-11-25T02:16:22.688Z,0.80
2022-11-25T02:18:50.127Z,0.80
2022-11-25T02:21:20.631Z,1.05
2022-11-25T02:23:47.247Z,2.22
2022-11-25T02:26:13.729Z,0.65
2022-11-25T02:28:40.727Z,1.30
2022-11-25T02:31:08.076Z,0.80
2022-11-25T02:33:34.845Z,2.30
2022-11-25T02:36:11.701Z,1.52
2022-11-25T02:38:40.458Z,1.23
2022-11-25T02:41:09.763Z,1.52
2022-11-25T02:43:36.484Z,0.90
2022-11-25T02:46:05.177Z,0.85
2022-11-25T02:49:00.892Z,0.98
2022-11-25T02:51:20.236Z,0.80
2022-11-25T02:53:46.917Z,0.77
2022-11-25T02:56:14.372Z,0.85
2022-11-25T02:58:41.008Z,0.82
2022-11-25T03:01:07.727Z,0.80
2022-11-25T03:03:34.307Z,0.60
2022-11-25T03:06:01.036Z,1.27
2022-11-25T03:08:27.670Z,0.60
2022-11-25T03:10:54.279Z,0.80
2022-11-25T03:13:21.147Z,1.40
2022-11-25T03:15:47.776Z,0.88
2022-11-25T03:18:14.665Z,0.70
2022-11-25T03:20:41.356Z,0.80
2022-11-25T03:23:08.139Z,1.13
2022-11-25T03:25:35.591Z,0.80
2022-11-25T03:28:02.453Z,0.98
2022-11-25T03:30:29.337Z,0.88
2022-11-25T03:32:56.008Z,1.65
2022-11-25T03:35:23.592Z,1.10
2022-11-25T03:37:50.658Z,1.65
2022-11-25T03:40:17.336Z,0.75
2022-11-25T03:42:44.150Z,1.40
2022-11-25T03:45:13.137Z,0.88
2022-11-25T03:47:40.604Z,0.60
2022-11-25T03:50:07.792Z,0.70
2022-11-25T03:52:34.437Z,1.80
2022-11-25T03:55:00.960Z,0.70
2022-11-25T03:57:27.606Z,1.23
2022-11-25T03:59:54.171Z,0.85
2022-11-25T04:02:20.907Z,0.60
2022-11-25T04:04:47.588Z,1.02
2022-11-25T04:07:14.140Z,1.08
2022-11-25T04:09:40.708Z,1.15
2022-11-25T04:12:25.718Z,0.60
2022-11-25T04:14:52.329Z,1.42
2022-11-25T04:17:19.014Z,1.08
2022-11-25T04:19:45.645Z,1.63
2022-11-25T04:22:12.305Z,0.70
2022-11-25T04:24:39.031Z,0.65
2022-11-25T04:27:05.628Z,0.77
2022-11-25T04:29:32.365Z,0.93
2022-11-25T04:31:59.527Z,0.80
2022-11-25T04:34:26.192Z,1.10
2022-11-25T04:36:52.821Z,1.27
2022-11-25T04:39:19.420Z,1.88
2022-11-25T04:41:45.949Z,1.15
2022-11-25T04:44:12.485Z,1.33
2022-11-25T04:46:40.950Z,0.60
2022-11-25T04:49:07.860Z,0.63
2022-11-25T04:51:34.385Z,0.60
2022-11-25T04:54:00.950Z,1.52
2022-11-25T04:56:27.560Z,1.10
2022-11-25T04:59:12.822Z,0.93
2022-11-25T05:01:39.454Z,0.70
2022-11-25T05:04:05.981Z,0.60
2022-11-25T05:06:32.661Z,0.82
2022-11-25T05:08:59.200Z,0.75
2022-11-25T05:11:25.680Z,1.08
2022-11-25T05:13:52.743Z,2.65
2022-11-25T05:16:19.323Z,0.60
2022-11-25T05:18:45.920Z,2.90
2022-11-25T05:21:12.493Z,1.02
2022-11-25T05:23:38.979Z,0.93
2022-11-25T05:26:05.628Z,5.18
2022-11-25T05:28:32.666Z,0.93
2022-11-25T05:30:59.205Z,1.83
2022-11-25T05:33:25.912Z,0.77
2022-11-25T05:35:59.401Z,0.98
2022-11-25T05:38:26.444Z,1.05
2022-11-25T05:40:53.274Z,0.85
2022-11-25T05:43:19.829Z,1.05
2022-11-25T05:45:46.570Z,0.73
2022-11-25T05:48:13.254Z,0.77
2022-11-25T05:50:39.812Z,3.33
2022-11-25T05:53:06.370Z,1.45
2022-11-25T05:55:32.987Z,0.80
2022-11-25T05:58:00.090Z,1.38
2022-11-25T06:00:27.099Z,1.08
2022-11-25T06:02:53.909Z,1.00
2022-11-25T06:05:20.906Z,1.23
2022-11-25T06:07:47.571Z,0.90
2022-11-25T06:10:14.229Z,1.13
2022-11-25T06:12:40.766Z,1.77
2022-11-25T06:15:07.670Z,0.77
2022-11-25T06:17:34.206Z,1.98
2022-11-25T06:20:00.888Z,1.08
2022-11-25T06:22:27.491Z,0.85
2022-11-25T06:25:00.379Z,0.90
2022-11-25T06:27:50.044Z,1.73
2022-11-25T06:30:16.573Z,0.80
2022-11-25T06:32:43.775Z,1.35
2022-11-25T06:35:10.336Z,1.10
2022-11-25T06:37:37.201Z,1.25
2022-11-25T06:40:04.595Z,0.75
2022-11-25T06:42:31.238Z,2.00
2022-11-25T06:44:57.861Z,0.88
2022-11-25T06:47:24.463Z,1.45
2022-11-25T06:49:51.130Z,0.80
2022-11-25T06:52:17.686Z,1.98
2022-11-25T06:54:45.589Z,1.05
2022-11-25T06:57:12.641Z,1.85
2022-11-25T06:59:39.220Z,1.17
2022-11-25T07:02:05.931Z,1.08
2022-11-25T07:04:34.580Z,1.55
2022-11-25T07:07:01.374Z,1.23
2022-11-25T07:09:27.957Z,1.17
2022-11-25T07:11:54.494Z,1.35
2022-11-25T07:14:21.278Z,1.20
2022-11-25T07:16:48.036Z,1.05
2022-11-25T07:19:15.947Z,3.35
2022-11-25T07:21:44.484Z,1.30
2022-11-25T07:24:12.573Z,1.38
2022-11-25T07:26:39.998Z,1.33
2022-11-25T07:29:18.226Z,1.25
2022-11-25T07:31:54.527Z,1.35
2022-11-25T07:34:21.536Z,1.48
2022-11-25T07:36:49.024Z,0.98
2022-11-25T07:39:17.123Z,1.13
2022-11-25T07:41:43.872Z,2.38
2022-11-25T07:44:12.051Z,1.35
2022-11-25T07:46:40.265Z,1.15
2022-11-25T07:49:08.996Z,1.15
2022-11-25T07:51:36.965Z,0.95
2022-11-25T07:54:04.892Z,1.20
2022-11-25T07:56:31.596Z,2.10
2022-11-25T07:58:58.163Z,0.80
2022-11-25T08:01:25.101Z,1.70
2022-11-25T08:03:52.022Z,1.27
2022-11-25T08:06:19.860Z,0.85
2022-11-25T08:08:46.980Z,1.20
2022-11-25T08:11:14.991Z,1.35
2022-11-25T08:13:41.973Z,1.23
2022-11-25T08:16:08.916Z,1.05
2022-11-25T08:18:35.683Z,1.13
2022-11-25T08:21:06.189Z,1.30
2022-11-25T08:23:33.260Z,1.10
2022-11-25T08:26:04.183Z,2.00
2022-11-25T08:28:30.762Z,1.13
2022-11-25T08:31:07.493Z,1.10
2022-11-25T08:33:34.593Z,1.60
2022-11-25T08:36:01.309Z,2.15
2022-11-25T08:38:28.189Z,1.33
2022-11-25T08:40:55.070Z,1.00
2022-11-25T08:43:26.372Z,1.13
2022-11-25T08:45:55.730Z,0.93
2022-11-25T08:48:22.332Z,0.70
2022-11-25T08:50:51.131Z,1.63
2022-11-25T08:53:17.910Z,1.30
2022-11-25T08:55:44.523Z,1.92
2022-11-25T08:58:13.240Z,1.40
2022-11-25T09:00:43.341Z,2.28
2022-11-25T09:03:10.108Z,1.17
2022-11-25T09:05:39.659Z,1.08
2022-11-25T09:08:07.232Z,2.45
2022-11-25T09:10:33.826Z,0.80
2022-11-25T09:13:00.945Z,1.08
2022-11-25T09:15:28.402Z,1.70
2022-11-25T09:17:59.480Z,2.38
2022-11-25T09:20:26.301Z,2.53
2022-11-25T09:22:52.900Z,1.42
2022-11-25T09:25:20.006Z,2.28
2022-11-25T09:27:46.682Z,1.95
2022-11-25T09:30:13.328Z,2.70
2022-11-25T09:32:40.252Z,5.65
2022-11-25T09:35:06.941Z,1.17
2022-11-25T09:37:33.449Z,2.45
2022-11-25T09:40:00.029Z,2.08
2022-11-25T09:42:52.572Z,1.27
2022-11-25T09:45:52.388Z,2.20
2022-11-25T09:48:37.108Z,1.50
2022-11-25T09:51:03.674Z,5.22
2022-11-25T09:53:47.271Z,6.65
2022-11-25T09:56:16.567Z,2.08
2022-11-25T09:58:48.167Z,4.13
2022-11-25T10:01:17.208Z,4.43
2022-11-25T10:03:45.979Z,5.93
2022-11-25T10:06:12.531Z,2.83
2022-11-25T10:08:41.177Z,3.75
2022-11-25T10:11:22.954Z,1.70
2022-11-25T10:13:55.527Z,12.80
2022-11-25T10:16:27.938Z,3.25
2022-11-25T10:19:02.719Z,3.63
2022-11-25T10:21:29.329Z,1.60
2022-11-25T10:23:56.026Z,5.72
2022-11-25T10:26:25.976Z,1.90
2022-11-25T10:29:17.168Z,2.72
2022-11-25T10:31:43.874Z,1.40
2022-11-25T10:34:23.877Z,1.30
2022-11-25T10:36:51.926Z,2.78
2022-11-25T10:39:30.057Z,3.10
2022-11-25T10:41:56.870Z,5.10
2022-11-25T10:44:27.668Z,1.55
2022-11-25T10:47:14.349Z,3.60
2022-11-25T10:49:48.506Z,3.20
2022-11-25T10:52:15.269Z,3.08
2022-11-25T10:54:42.092Z,3.60
2022-11-25T10:57:18.867Z,2.88
2022-11-25T10:59:54.470Z,1.55
2022-11-25T11:02:26.187Z,3.13
2022-11-25T11:04:56.237Z,2.28
2022-11-25T11:07:23.378Z,3.95
2022-11-25T11:09:50.098Z,2.55
2022-11-25T11:12:24.614Z,4.82
2022-11-25T11:14:52.390Z,5.18
2022-11-25T11:17:24.911Z,5.00
2022-11-25T11:20:01.730Z,12.73
2022-11-25T11:22:28.290Z,7.72
2022-11-25T11:25:13.481Z,5.38
2022-11-25T11:27:40.001Z,7.95
2022-11-25T11:30:16.027Z,7.35
2022-11-25T11:32:45.032Z,6.88
2022-11-25T11:35:14.394Z,17.00
2022-11-25T11:37:44.222Z,4.68
2022-11-25T11:40:25.952Z,10.48
2022-11-25T11:42:55.552Z,12.80
2022-11-25T11:45:25.201Z,16.10
2022-11-25T11:47:52.040Z,20.52
2022-11-25T11:50:32.626Z,15.65
2022-11-25T19:22:30.836Z,22.63
2022-11-25T19:24:59.177Z,18.27
2022-11-25T19:27:26.659Z,24.42
2022-11-25T19:29:53.290Z,20.55
2022-11-25T19:32:21.889Z,21.58
2022-11-25T19:34:51.074Z,17.75
2022-11-25T19:37:20.432Z,20.00
2022-11-25T19:39:51.072Z,19.00
2022-11-25T19:42:17.769Z,16.58
2022-11-25T19:44:44.986Z,16.67
2022-11-25T19:47:25.101Z,14.95
2022-11-25T19:49:53.058Z,14.80
2022-11-25T19:52:20.676Z,15.45
2022-11-25T19:54:47.169Z,14.20
2022-11-25T19:57:18.090Z,15.35
2022-11-25T19:59:44.733Z,15.85
2022-11-25T20:02:15.907Z,15.27
2022-11-25T20:04:43.852Z,14.18
2022-11-25T20:07:11.241Z,13.55
2022-11-25T20:09:37.813Z,14.48
2022-11-25T20:12:30.852Z,13.30
2022-11-25T20:14:57.345Z,14.95
2022-11-25T20:17:32.750Z,14.15
2022-11-25T20:20:05.242Z,11.05
2022-11-25T20:22:34.550Z,11.15
2022-11-25T20:25:02.570Z,12.23
2022-11-25T20:27:29.770Z,12.98
2022-11-25T20:29:56.373Z,13.55
2022-11-25T20:32:28.125Z,11.50
2022-11-25T20:34:55.100Z,13.02
2022-11-25T20:37:24.169Z,10.90
2022-11-25T20:39:55.530Z,11.82
2022-11-25T20:42:22.561Z,12.00
2022-11-25T20:44:53.353Z,12.10
2022-11-25T20:47:26.236Z,10.52
2022-11-25T20:49:53.820Z,14.88
2022-11-25T20:52:24.132Z,9.93
2022-11-25T20:54:50.588Z,17.02
2022-11-25T20:57:17.130Z,10.57
2022-11-25T20:59:44.600Z,10.45
2022-11-25T21:02:11.335Z,10.32
2022-11-25T21:04:38.267Z,11.85
2022-11-25T21:07:05.347Z,8.20
2022-11-25T21:09:34.229Z,9.30
2022-11-25T21:12:19.152Z,9.32
2022-11-25T21:14:46.109Z,8.68
2022-11-25T21:17:12.599Z,10.85
2022-11-25T21:19:39.118Z,11.02
2022-11-25T21:22:05.631Z,8.65
2022-11-25T21:24:34.399Z,10.45
2022-11-25T21:27:02.793Z,13.35
2022-11-25T21:29:29.915Z,6.95
2022-11-25T21:31:56.470Z,10.57
2022-11-25T21:34:23.082Z,8.13
2022-11-25T21:36:51.839Z,10.20
2022-11-25T21:39:29.481Z,9.00
2022-11-25T21:41:57.981Z,9.95
2022-11-25T21:44:26.851Z,9.27
2022-11-25T21:46:53.921Z,8.02
2022-11-25T21:49:20.552Z,7.68
2022-11-25T21:51:47.032Z,8.18
2022-11-25T21:54:13.513Z,7.57
2022-11-25T21:56:40.174Z,11.65
2022-11-25T21:59:07.519Z,9.68
2022-11-25T22:01:34.050Z,13.70
2022-11-25T22:04:00.711Z,14.45
2022-11-25T22:06:28.555Z,13.60
2022-11-25T22:08:55.567Z,15.25
2022-11-25T22:11:48.398Z,9.13
2022-11-25T22:14:22.158Z,7.78
2022-11-25T22:16:48.677Z,10.32
2022-11-25T22:19:19.626Z,8.75
2022-11-25T22:21:46.248Z,10.52
2022-11-25T22:24:16.033Z,9.18
2022-11-25T22:26:43.897Z,12.15
2022-11-25T22:29:13.637Z,6.38
2022-11-25T22:31:40.141Z,9.68
2022-11-25T22:34:06.708Z,7.45
2022-11-25T22:36:34.520Z,6.05
2022-11-25T22:39:13.594Z,9.07
2022-11-25T22:41:40.567Z,11.88
2022-11-25T22:44:12.006Z,5.28
2022-11-25T22:46:38.902Z,7.88
2022-11-25T22:49:05.451Z,8.13
2022-11-25T22:51:31.988Z,7.50
2022-11-25T22:53:58.415Z,7.35
2022-11-25T22:56:25.436Z,5.75
2022-11-25T22:58:52.396Z,7.50
2022-11-25T23:01:18.980Z,6.68
2022-11-25T23:03:45.548Z,6.57
2022-11-25T23:06:12.851Z,7.25
2022-11-25T23:08:39.355Z,4.88
2022-11-25T23:11:06.315Z,6.53
2022-11-25T23:13:32.770Z,6.63
2022-11-25T23:16:00.779Z,5.50
2022-11-25T23:18:40.768Z,5.25
2022-11-25T23:21:14.221Z,5.80
2022-11-25T23:23:40.624Z,4.70
2022-11-25T23:26:10.137Z,6.47
2022-11-25T23:28:36.628Z,5.75
2022-11-25T23:31:03.209Z,4.50
2022-11-25T23:33:32.653Z,5.50
2022-11-25T23:36:00.214Z,5.80
2022-11-25T23:38:29.532Z,6.90
2022-11-25T23:40:55.983Z,5.78
2022-11-25T23:43:22.560Z,4.32
2022-11-25T23:45:54.536Z,4.47
2022-11-25T23:48:22.357Z,5.95
2022-11-25T23:50:49.139Z,4.75
2022-11-25T23:53:22.948Z,4.47
2022-11-25T23:55:49.810Z,3.85
2022-11-25T23:58:17.633Z,4.80
